Time;durP1;ratioP1;P1;durP2;ratioP2;P2;SDS_P1;SDS_P2;PMS_P1;PMS_P2;Temp;Humidity;BMP_temperature;BMP_pressure;BME280_temperature;BME280_humidity;BME280_pressure;Samples;Min_cycle;Max_cycle;Signal;HPM_P1;HPM_P2
2023/01/05 00:01:16;;;;;;;28.83;4.60;;;;;;;;;;5010739;28;20249;-72
2023/01/05 00:03:42;;;;;;;19.00;5.00;;;;;;;;;;5011197;28;20179;-73
2023/01/05 00:06:11;;;;;;;16.40;4.17;;;;;;;;;;5006375;28;20273;-73
2023/01/05 00:08:36;;;;;;;17.00;3.57;;;;;;;;;;5003821;28;20640;-73
2023/01/05 00:22:31;;;;;;;24.23;4.90;;;;;;;;;;5011407;28;20317;-74
2023/01/05 00:24:57;;;;;;;25.67;4.80;;;;;;;;;;5002373;28;20179;-74
2023/01/05 00:27:22;;;;;;;15.80;3.93;;;;;;;;;;5012134;28;20229;-74
2023/01/05 00:29:48;;;;;;;20.93;4.40;;;;;;;;;;5009695;28;20222;-73
2023/01/05 00:32:13;;;;;;;26.50;4.60;;;;;;;;;;5002708;28;20214;-74
2023/01/05 00:34:38;;;;;;;18.60;3.90;;;;;;;;;;5007917;28;20214;-74
2023/01/05 00:37:03;;;;;;;13.80;3.50;;;;;;;;;;5000923;28;20241;-74
2023/01/05 00:39:28;;;;;;;19.83;4.67;;;;;;;;;;5010901;28;20163;-74
2023/01/05 00:41:53;;;;;;;20.03;4.60;;;;;;;;;;5007851;28;20296;-74
2023/01/05 00:44:19;;;;;;;22.47;4.90;;;;;;;;;;5003709;28;20193;-74
2023/01/05 00:46:44;;;;;;;18.60;4.70;;;;;;;;;;5009485;28;20176;-74
2023/01/05 00:49:09;;;;;;;18.97;3.70;;;;;;;;;;5011548;28;20652;-73
2023/01/05 00:51:34;;;;;;;15.27;3.60;;;;;;;;;;5008779;28;20187;-74
2023/01/05 00:53:59;;;;;;;25.40;6.07;;;;;;;;;;4998962;28;20203;-73
2023/01/05 00:56:24;;;;;;;12.77;2.93;;;;;;;;;;5007139;28;20273;-74
2023/01/05 00:58:52;;;;;;;15.37;3.90;;;;;;;;;;4996514;28;20168;-74
2023/01/05 01:01:17;;;;;;;25.97;5.13;;;;;;;;;;5005806;28;20250;-74
2023/01/05 01:03:42;;;;;;;16.07;3.77;;;;;;;;;;5011789;28;20214;-74
2023/01/05 01:06:07;;;;;;;16.17;4.00;;;;;;;;;;5011283;28;20663;-74
2023/01/05 01:08:32;;;;;;;18.90;3.33;;;;;;;;;;5008809;28;20176;-74
2023/01/05 01:11:02;;;;;;;25.93;4.63;;;;;;;;;;5018334;22;20287;-78
2023/01/05 01:13:27;;;;;;;19.83;6.43;;;;;;;;;;4972762;28;20231;-79
2023/01/05 01:15:52;;;;;;;19.07;3.43;;;;;;;;;;4969541;28;20236;-78
2023/01/05 01:18:17;;;;;;;21.83;4.40;;;;;;;;;;4980612;28;20183;-78
2023/01/05 01:20:43;;;;;;;24.70;4.80;;;;;;;;;;4981663;28;20175;-78
2023/01/05 01:23:08;;;;;;;19.87;4.73;;;;;;;;;;4971484;28;20176;-78
2023/01/05 01:25:33;;;;;;;19.13;4.00;;;;;;;;;;4993251;28;20183;-77
2023/01/05 01:27:58;;;;;;;20.93;6.23;;;;;;;;;;4981726;28;20653;-78
2023/01/05 01:30:24;;;;;;;15.93;4.60;;;;;;;;;;4987952;28;20654;-77
2023/01/05 01:32:49;;;;;;;22.80;5.30;;;;;;;;;;4979319;28;20287;-77
2023/01/05 01:35:14;;;;;;;16.70;4.43;;;;;;;;;;4976869;28;20239;-79
2023/01/05 01:37:39;;;;;;;25.63;4.43;;;;;;;;;;4984856;28;20171;-79
2023/01/05 01:40:05;;;;;;;26.47;4.40;;;;;;;;;;4976487;28;20185;-79
2023/01/05 01:42:31;;;;;;;19.37;4.03;;;;;;;;;;4976585;28;20192;-79
2023/01/05 01:45:00;;;;;;;24.90;5.33;;;;;;;;;;4971791;28;20210;-78
2023/01/05 01:47:51;;;;;;;16.47;4.33;;;;;;;;;;4973790;28;20180;-78
2023/01/05 01:50:19;;;;;;;26.00;5.90;;;;;;;;;;4977532;28;20661;-79
2023/01/05 01:52:45;;;;;;;23.03;5.00;;;;;;;;;;4976543;28;20638;-79
2023/01/05 01:55:11;;;;;;;18.83;4.87;;;;;;;;;;4975170;28;20208;-78
2023/01/05 01:57:37;;;;;;;29.57;5.17;;;;;;;;;;4965548;28;20223;-77
2023/01/05 02:00:04;;;;;;;36.80;6.47;;;;;;;;;;4972748;28;20220;-78
2023/01/05 02:02:29;;;;;;;24.13;5.50;;;;;;;;;;4970114;28;20208;-79
2023/01/05 02:04:58;;;;;;;20.20;5.23;;;;;;;;;;4974937;28;20271;-79
2023/01/05 02:07:23;;;;;;;19.10;4.30;;;;;;;;;;4983573;28;20658;-79
2023/01/05 02:09:49;;;;;;;19.00;3.67;;;;;;;;;;4982421;28;20195;-79
2023/01/05 02:12:14;;;;;;;26.23;5.40;;;;;;;;;;4960319;28;20274;-79
2023/01/05 02:14:48;;;;;;;28.20;4.53;;;;;;;;;;4980677;28;20191;-78
2023/01/05 02:17:30;;;;;;;34.27;4.80;;;;;;;;;;4986224;28;20202;-78
2023/01/05 02:20:21;;;;;;;27.60;4.57;;;;;;;;;;4988322;28;20253;-79
2023/01/05 02:23:05;;;;;;;19.13;6.63;;;;;;;;;;4952523;28;20236;-79
2023/01/05 02:25:30;;;;;;;23.67;3.93;;;;;;;;;;4977627;28;20180;-79
2023/01/05 02:28:06;;;;;;;23.10;5.10;;;;;;;;;;4974514;28;20227;-78
2023/01/05 02:30:58;;;;;;;30.03;7.33;;;;;;;;;;4974881;28;20736;-79
2023/01/05 02:33:23;;;;;;;14.77;4.30;;;;;;;;;;4983945;28;20183;-79
2023/01/05 02:35:53;;;;;;;21.93;4.90;;;;;;;;;;4981966;28;20227;-79
2023/01/05 02:38:24;;;;;;;24.23;5.63;;;;;;;;;;4976880;28;20168;-78
2023/01/05 02:40:53;;;;;;;21.40;4.00;;;;;;;;;;4979068;28;20192;-78
2023/01/05 02:43:19;;;;;;;16.10;4.07;;;;;;;;;;4975610;28;20187;-78
2023/01/05 02:45:44;;;;;;;26.00;6.53;;;;;;;;;;4981458;28;20202;-79
2023/01/05 02:48:10;;;;;;;22.20;4.90;;;;;;;;;;4973993;28;20176;-79
2023/01/05 02:50:41;;;;;;;20.10;4.97;;;;;;;;;;4975711;28;20183;-79
2023/01/05 02:53:09;;;;;;;20.00;4.17;;;;;;;;;;4977368;28;20196;-79
2023/01/05 02:55:38;;;;;;;19.63;4.23;;;;;;;;;;4981545;28;20249;-79
2023/01/05 02:58:09;;;;;;;19.57;4.33;;;;;;;;;;4982636;28;20172;-78
2023/01/05 03:00:38;;;;;;;19.50;4.47;;;;;;;;;;4985486;28;20626;-78
2023/01/05 03:03:18;;;;;;;15.33;4.13;;;;;;;;;;4968935;28;20729;-78
2023/01/05 03:06:09;;;;;;;22.93;4.33;;;;;;;;;;4979784;28;20723;-79
2023/01/05 03:08:37;;;;;;;18.20;4.30;;;;;;;;;;4969848;28;20287;-78
2023/01/05 03:13:49;;;;;;;20.03;3.17;;;;;;;;;;4968635;28;20596;-77
2023/01/05 03:16:18;;;;;;;22.43;4.03;;;;;;;;;;4982555;28;20172;-77
2023/01/05 03:35:32;;;;;;;12.80;3.17;;;;;;;;;;4974525;28;20239;-79
2023/01/05 03:38:01;;;;;;;23.50;5.27;;;;;;;;;;4981099;28;20677;-79
2023/01/05 03:40:27;;;;;;;17.63;5.07;;;;;;;;;;4978019;28;20664;-79
2023/01/05 03:42:53;;;;;;;17.83;3.27;;;;;;;;;;4974233;28;20168;-78
2023/01/05 03:45:19;;;;;;;18.03;3.70;;;;;;;;;;4972988;28;20637;-79
2023/01/05 03:47:44;;;;;;;17.23;4.60;;;;;;;;;;4974444;28;20179;-79
2023/01/05 03:50:09;;;;;;;20.73;3.60;;;;;;;;;;4987482;28;20176;-80
2023/01/05 03:52:35;;;;;;;18.67;3.73;;;;;;;;;;4973798;28;20746;-78
2023/01/05 03:55:00;;;;;;;15.10;4.30;;;;;;;;;;4973008;28;20710;-78
2023/01/05 03:57:25;;;;;;;20.20;5.00;;;;;;;;;;4974282;28;20204;-77
2023/01/05 03:59:50;;;;;;;23.00;6.03;;;;;;;;;;4973483;28;20173;-79
2023/01/05 04:02:15;;;;;;;14.83;4.20;;;;;;;;;;4972058;28;20688;-79
2023/01/05 04:04:41;;;;;;;18.03;4.30;;;;;;;;;;4976204;28;20234;-79
2023/01/05 04:07:06;;;;;;;18.80;4.60;;;;;;;;;;4972508;28;20208;-79
2023/01/05 04:09:32;;;;;;;15.10;4.10;;;;;;;;;;4972745;28;20243;-79
2023/01/05 04:11:58;;;;;;;17.07;5.03;;;;;;;;;;4975939;28;20246;-79
2023/01/05 04:14:23;;;;;;;23.20;4.47;;;;;;;;;;4966184;28;20212;-78
2023/01/05 04:16:48;;;;;;;17.37;3.80;;;;;;;;;;4976317;28;20183;-78
2023/01/05 04:19:13;;;;;;;20.23;4.70;;;;;;;;;;4976382;28;20173;-78
2023/01/05 04:21:38;;;;;;;18.17;4.57;;;;;;;;;;4978505;28;20628;-79
2023/01/05 04:24:04;;;;;;;18.80;3.63;;;;;;;;;;4974703;28;20196;-79
2023/01/05 04:26:29;;;;;;;13.93;3.77;;;;;;;;;;4980258;28;20259;-79
2023/01/05 04:28:54;;;;;;;16.53;3.93;;;;;;;;;;4976553;28;20176;-79
2023/01/05 04:31:19;;;;;;;17.60;3.67;;;;;;;;;;4976677;28;20703;-79
2023/01/05 04:33:44;;;;;;;17.13;3.20;;;;;;;;;;4974330;28;20190;-79
2023/01/05 04:36:10;;;;;;;13.80;3.50;;;;;;;;;;4972697;28;20670;-79
2023/01/05 04:38:35;;;;;;;20.67;5.57;;;;;;;;;;4970544;28;20519;-78
2023/01/05 04:41:00;;;;;;;12.30;3.23;;;;;;;;;;4971351;28;20287;-79
2023/01/05 04:43:25;;;;;;;15.50;3.90;;;;;;;;;;4981877;28;20181;-77
2023/01/05 04:45:51;;;;;;;20.43;5.13;;;;;;;;;;4978532;28;20649;-77
2023/01/05 04:48:16;;;;;;;18.70;4.00;;;;;;;;;;4983031;28;20186;-77
2023/01/05 04:50:41;;;;;;;20.20;4.63;;;;;;;;;;4979621;28;20552;-77
2023/01/05 04:53:07;;;;;;;18.20;3.53;;;;;;;;;;4975125;28;20234;-77
2023/01/05 04:55:32;;;;;;;20.80;4.10;;;;;;;;;;4981673;28;20212;-79
2023/01/05 04:57:57;;;;;;;18.33;4.00;;;;;;;;;;4965189;28;20172;-78
2023/01/05 05:00:22;;;;;;;21.17;3.60;;;;;;;;;;4970706;28;20647;-79
2023/01/05 05:02:48;;;;;;;18.23;3.37;;;;;;;;;;4971090;28;20279;-78
2023/01/05 05:05:13;;;;;;;21.43;3.77;;;;;;;;;;4966902;28;20773;-78
2023/01/05 05:07:38;;;;;;;15.10;4.30;;;;;;;;;;4968312;28;20229;-78
2023/01/05 05:10:04;;;;;;;19.70;4.43;;;;;;;;;;4967931;28;20278;-79
2023/01/05 05:12:29;;;;;;;25.33;4.43;;;;;;;;;;4977712;28;20215;-79
2023/01/05 05:14:54;;;;;;;16.83;3.77;;;;;;;;;;4973341;28;20295;-78
2023/01/05 05:17:19;;;;;;;21.87;3.43;;;;;;;;;;4970212;28;20187;-78
2023/01/05 05:19:44;;;;;;;21.93;4.53;;;;;;;;;;4971255;28;20179;-79
2023/01/05 05:22:10;;;;;;;20.97;4.50;;;;;;;;;;4968067;28;20196;-79
2023/01/05 05:24:35;;;;;;;25.13;3.97;;;;;;;;;;4968342;28;20274;-79
2023/01/05 05:27:00;;;;;;;18.43;5.87;;;;;;;;;;4970004;28;20180;-79
2023/01/05 05:29:25;;;;;;;21.37;4.60;;;;;;;;;;4963694;28;20192;-78
2023/01/05 05:31:51;;;;;;;21.80;3.67;;;;;;;;;;4970507;28;20283;-78
2023/01/05 05:34:17;;;;;;;19.67;3.63;;;;;;;;;;4972426;28;20641;-78
2023/01/05 05:36:42;;;;;;;21.27;3.90;;;;;;;;;;4974173;28;20180;-78
2023/01/05 05:39:07;;;;;;;20.93;4.30;;;;;;;;;;4972937;28;20168;-79
2023/01/05 05:41:32;;;;;;;20.10;4.40;;;;;;;;;;4980912;28;20200;-78
2023/01/05 05:43:59;;;;;;;25.03;5.63;;;;;;;;;;4978566;28;20176;-79
2023/01/05 05:46:26;;;;;;;15.97;4.07;;;;;;;;;;4976470;28;20680;-78
2023/01/05 05:48:51;;;;;;;16.07;5.30;;;;;;;;;;4982257;28;20180;-77
2023/01/05 05:51:16;;;;;;;21.03;4.37;;;;;;;;;;4978910;28;20202;-78
2023/01/05 05:53:41;;;;;;;12.73;3.27;;;;;;;;;;4978949;28;20221;-79
2023/01/05 05:56:06;;;;;;;27.83;5.13;;;;;;;;;;4984369;28;20181;-79
2023/01/05 05:58:32;;;;;;;27.10;6.20;;;;;;;;;;4984471;28;20186;-78
2023/01/05 06:00:58;;;;;;;25.10;4.83;;;;;;;;;;4986153;28;20306;-79
2023/01/05 06:03:23;;;;;;;20.50;5.50;;;;;;;;;;4977363;28;20180;-79
2023/01/05 06:05:48;;;;;;;24.57;5.53;;;;;;;;;;4984339;28;20480;-79
2023/01/05 06:08:13;;;;;;;27.30;5.60;;;;;;;;;;4980696;28;20192;-78
2023/01/05 06:10:38;;;;;;;24.17;5.43;;;;;;;;;;4979022;28;20230;-78
2023/01/05 06:13:04;;;;;;;21.80;5.47;;;;;;;;;;4980555;28;20180;-79
2023/01/05 06:15:29;;;;;;;23.47;5.27;;;;;;;;;;4977756;28;20208;-78
2023/01/05 06:17:54;;;;;;;25.83;4.47;;;;;;;;;;4977217;28;20183;-79
2023/01/05 06:20:20;;;;;;;23.03;4.73;;;;;;;;;;4978198;28;20222;-78
2023/01/05 06:22:45;;;;;;;29.17;5.80;;;;;;;;;;4976546;28;20247;-78
2023/01/05 06:25:10;;;;;;;20.67;4.63;;;;;;;;;;4979902;28;20180;-78
2023/01/05 06:27:35;;;;;;;24.63;4.90;;;;;;;;;;4979315;28;20703;-78
2023/01/05 06:30:01;;;;;;;20.87;3.97;;;;;;;;;;4981893;28;20177;-78
2023/01/05 06:32:26;;;;;;;28.67;5.07;;;;;;;;;;4982977;28;20227;-79
2023/01/05 06:34:51;;;;;;;16.83;4.57;;;;;;;;;;4981779;28;20301;-78
2023/01/05 06:37:16;;;;;;;26.40;6.20;;;;;;;;;;4982087;28;20179;-79
2023/01/05 06:39:41;;;;;;;23.80;6.13;;;;;;;;;;4979065;28;20176;-79
2023/01/05 06:42:07;;;;;;;26.63;5.03;;;;;;;;;;4980933;28;20212;-79
2023/01/05 06:44:32;;;;;;;20.70;4.83;;;;;;;;;;4976180;28;20192;-79
2023/01/05 06:46:57;;;;;;;25.27;5.50;;;;;;;;;;4977526;28;20208;-78
2023/01/05 06:49:22;;;;;;;18.83;3.90;;;;;;;;;;4982494;28;20184;-78
2023/01/05 06:51:48;;;;;;;17.57;6.03;;;;;;;;;;4979268;28;20192;-78
2023/01/05 06:54:13;;;;;;;17.60;4.33;;;;;;;;;;4982051;28;20227;-78
2023/01/05 06:56:38;;;;;;;17.23;3.63;;;;;;;;;;4985626;28;20552;-78
2023/01/05 06:59:03;;;;;;;29.47;5.47;;;;;;;;;;4979917;28;20657;-79
2023/01/05 07:01:29;;;;;;;22.03;5.50;;;;;;;;;;4973600;28;20197;-78
2023/01/05 07:03:54;;;;;;;19.57;4.27;;;;;;;;;;4973251;28;20649;-78
2023/01/05 07:06:19;;;;;;;22.77;4.63;;;;;;;;;;4978647;28;20594;-78
2023/01/05 07:08:44;;;;;;;29.83;5.13;;;;;;;;;;4977430;28;20175;-79
2023/01/05 07:11:09;;;;;;;17.63;4.50;;;;;;;;;;4987970;22;20554;-74
2023/01/05 07:13:35;;;;;;;22.03;3.73;;;;;;;;;;5012298;28;20175;-74
2023/01/05 07:16:00;;;;;;;18.53;3.90;;;;;;;;;;5013456;28;20709;-73
2023/01/05 07:18:25;;;;;;;17.93;5.00;;;;;;;;;;5012983;28;20190;-73
2023/01/05 07:20:51;;;;;;;20.50;5.00;;;;;;;;;;5013550;28;20234;-73
2023/01/05 07:23:16;;;;;;;30.70;5.20;;;;;;;;;;5011898;28;20175;-73
2023/01/05 07:25:41;;;;;;;22.07;5.23;;;;;;;;;;5008125;28;20183;-73
2023/01/05 07:28:06;;;;;;;24.00;6.40;;;;;;;;;;5011742;28;20597;-74
2023/01/05 07:30:32;;;;;;;24.83;5.37;;;;;;;;;;5011237;28;20202;-73
2023/01/05 07:32:58;;;;;;;25.73;4.83;;;;;;;;;;5011458;28;20229;-73
2023/01/05 07:35:23;;;;;;;18.83;3.73;;;;;;;;;;5009404;28;20195;-73
2023/01/05 07:37:48;;;;;;;26.63;6.67;;;;;;;;;;5012148;28;20177;-74
2023/01/05 07:40:13;;;;;;;14.13;4.13;;;;;;;;;;5013388;28;20175;-74
2023/01/05 07:42:38;;;;;;;20.70;4.13;;;;;;;;;;5012309;28;20252;-74
2023/01/05 07:45:04;;;;;;;18.53;4.53;;;;;;;;;;5010040;28;20178;-73
2023/01/05 07:47:30;;;;;;;23.37;4.00;;;;;;;;;;5008841;28;20191;-74
2023/01/05 07:49:55;;;;;;;17.77;3.80;;;;;;;;;;5009907;28;20183;-74
2023/01/05 07:52:20;;;;;;;16.47;5.43;;;;;;;;;;5009012;28;20203;-73
2023/01/05 07:54:45;;;;;;;22.63;4.60;;;;;;;;;;5006204;28;20250;-74
2023/01/05 07:57:11;;;;;;;24.63;5.60;;;;;;;;;;5008453;28;20175;-73
2023/01/05 07:59:36;;;;;;;21.17;4.20;;;;;;;;;;5006403;28;20182;-74
2023/01/05 08:02:01;;;;;;;19.30;4.50;;;;;;;;;;5005926;28;20340;-73
2023/01/05 08:04:26;;;;;;;27.53;5.83;;;;;;;;;;5006717;28;20183;-73
2023/01/05 08:06:51;;;;;;;18.87;5.07;;;;;;;;;;5003594;28;20616;-73
2023/01/05 08:12:00;;;;;;;20.27;4.20;;;;;;;;;;5009045;28;20208;-74
2023/01/05 08:14:25;;;;;;;19.90;5.17;;;;;;;;;;5006790;28;20278;-73
2023/01/05 08:16:50;;;;;;;16.63;6.37;;;;;;;;;;5004534;28;20214;-74
2023/01/05 08:19:16;;;;;;;18.80;4.07;;;;;;;;;;5008532;28;20564;-73
2023/01/05 08:21:41;;;;;;;29.00;6.83;;;;;;;;;;5011171;28;20195;-73
2023/01/05 08:24:06;;;;;;;18.73;5.30;;;;;;;;;;5006406;28;20662;-74
2023/01/05 08:26:32;;;;;;;20.77;4.97;;;;;;;;;;5008436;28;20213;-73
2023/01/05 08:28:57;;;;;;;20.07;4.53;;;;;;;;;;5009101;28;20236;-74
2023/01/05 08:31:27;;;;;;;18.67;5.70;;;;;;;;;;5008832;28;20687;-73
2023/01/05 08:33:57;;;;;;;19.77;4.23;;;;;;;;;;5003620;28;20237;-74
2023/01/05 08:36:22;;;;;;;20.37;5.20;;;;;;;;;;5005451;28;20566;-74
2023/01/05 08:38:50;;;;;;;26.10;4.47;;;;;;;;;;5010550;28;20171;-73
2023/01/05 08:41:19;;;;;;;17.30;3.97;;;;;;;;;;5011801;28;20195;-73
2023/01/05 08:43:48;;;;;;;30.40;6.67;;;;;;;;;;5009524;28;20201;-73
2023/01/05 08:46:13;;;;;;;28.20;5.80;;;;;;;;;;5006433;28;20590;-73
2023/01/05 08:48:38;;;;;;;24.10;4.63;;;;;;;;;;5009363;28;20214;-74
2023/01/05 08:51:06;;;;;;;23.83;5.40;;;;;;;;;;5006696;28;20249;-74
2023/01/05 08:53:31;;;;;;;27.23;4.97;;;;;;;;;;5001712;28;20183;-73
2023/01/05 08:55:56;;;;;;;24.47;4.17;;;;;;;;;;5009713;28;20209;-74
2023/01/05 08:58:21;;;;;;;21.73;4.47;;;;;;;;;;5004175;28;20675;-73
2023/01/05 09:00:46;;;;;;;18.43;3.93;;;;;;;;;;5011439;28;20178;-73
2023/01/05 09:03:12;;;;;;;19.97;4.27;;;;;;;;;;5006688;28;20606;-73
2023/01/05 09:05:37;;;;;;;20.90;4.90;;;;;;;;;;5010030;28;20271;-73
2023/01/05 09:08:03;;;;;;;21.83;4.53;;;;;;;;;;5011968;28;20180;-74
2023/01/05 09:10:28;;;;;;;27.30;4.60;;;;;;;;;;5012165;28;20256;-74
2023/01/05 09:12:54;;;;;;;24.97;5.10;;;;;;;;;;5011337;28;20238;-74
2023/01/05 09:15:19;;;;;;;20.20;4.80;;;;;;;;;;5011059;28;20672;-73
2023/01/05 09:17:44;;;;;;;19.63;5.00;;;;;;;;;;5009775;28;20175;-74
2023/01/05 09:20:09;;;;;;;31.37;5.40;;;;;;;;;;5012016;28;20179;-73
2023/01/05 09:22:35;;;;;;;20.73;4.03;;;;;;;;;;5012827;28;20197;-73
2023/01/05 09:25:00;;;;;;;20.17;4.77;;;;;;;;;;5004297;28;20335;-74
2023/01/05 09:27:25;;;;;;;23.70;5.30;;;;;;;;;;5007622;28;20190;-74
2023/01/05 09:29:51;;;;;;;21.57;4.47;;;;;;;;;;5009352;28;20262;-74
2023/01/05 09:32:16;;;;;;;20.17;4.10;;;;;;;;;;5004698;28;20290;-75
2023/01/05 09:34:41;;;;;;;20.07;4.03;;;;;;;;;;5004500;28;20211;-74
2023/01/05 09:37:07;;;;;;;23.13;5.87;;;;;;;;;;5007560;28;20167;-74
2023/01/05 09:39:32;;;;;;;24.40;4.40;;;;;;;;;;5001099;28;20190;-74
2023/01/05 09:41:59;;;;;;;16.47;4.00;;;;;;;;;;4999791;28;20195;-73
2023/01/05 09:44:27;;;;;;;18.10;3.77;;;;;;;;;;5005519;28;20183;-74
2023/01/05 09:46:53;;;;;;;18.27;3.97;;;;;;;;;;5005442;28;20184;-75
2023/01/05 09:49:20;;;;;;;18.23;4.77;;;;;;;;;;5009978;28;20179;-73
2023/01/05 09:51:46;;;;;;;20.87;4.20;;;;;;;;;;5001694;28;20195;-74
2023/01/05 09:54:16;;;;;;;15.00;4.37;;;;;;;;;;5002366;28;20301;-73
2023/01/05 09:56:43;;;;;;;21.15;5.15;;;;;;;;;;4995535;28;20175;-73
2023/01/05 09:59:10;;;;;;;16.60;4.68;;;;;;;;;;5005839;28;20642;-73
2023/01/05 10:01:36;;;;;;;24.02;3.75;;;;;;;;;;5007487;28;20223;-73
2023/01/05 10:04:04;;;;;;;30.50;5.80;;;;;;;;;;5006127;28;20418;-74
2023/01/05 10:06:33;;;;;;;17.95;3.92;;;;;;;;;;5009648;28;20190;-74
2023/01/05 10:08:59;;;;;;;19.17;3.80;;;;;;;;;;5003648;28;20264;-73
2023/01/05 10:14:38;;;;;;;28.20;4.83;;;;;;;;;;5008593;28;20256;-74
2023/01/05 10:17:07;;;;;;;24.98;4.28;;;;;;;;;;5004821;28;20174;-74
2023/01/05 10:19:32;;;;;;;23.27;5.27;;;;;;;;;;5003157;28;20622;-74
2023/01/05 10:21:57;;;;;;;16.92;3.83;;;;;;;;;;5015486;28;20289;-73
2023/01/05 10:24:38;;;;;;;28.97;7.33;;;;;;;;;;5004471;28;20182;-74
2023/01/05 10:27:30;;;;;;;17.15;4.07;;;;;;;;;;5007163;28;20491;-73
2023/01/05 10:30:08;;;;;;;21.20;4.13;;;;;;;;;;5001307;28;20191;-73
2023/01/05 10:32:47;;;;;;;24.10;5.35;;;;;;;;;;5006674;28;20710;-73
2023/01/05 10:35:18;;;;;;;17.42;4.00;;;;;;;;;;5010675;28;20205;-72
2023/01/05 10:37:59;;;;;;;16.83;4.50;;;;;;;;;;5010021;28;20187;-74
2023/01/05 10:40:38;;;;;;;18.67;4.72;;;;;;;;;;5006469;28;20182;-72
2023/01/05 10:43:04;;;;;;;19.90;5.35;;;;;;;;;;5004877;28;20198;-73
2023/01/05 10:45:29;;;;;;;17.27;3.72;;;;;;;;;;5004337;28;22073;-73
2023/01/05 10:47:55;;;;;;;23.95;4.88;;;;;;;;;;5009195;28;20186;-73
2023/01/05 10:50:26;;;;;;;20.20;4.38;;;;;;;;;;5006112;28;20606;-73
2023/01/05 10:52:52;;;;;;;21.63;4.45;;;;;;;;;;5005952;28;20194;-73
2023/01/05 10:55:17;;;;;;;22.80;5.43;;;;;;;;;;5009574;28;20206;-73
2023/01/05 10:57:44;;;;;;;16.60;3.47;;;;;;;;;;5011586;28;20213;-73
2023/01/05 11:00:10;;;;;;;19.05;4.63;;;;;;;;;;5007508;28;20178;-73
2023/01/05 11:02:37;;;;;;;22.63;4.45;;;;;;;;;;5013588;28;20194;-73
2023/01/05 11:05:05;;;;;;;18.48;5.15;;;;;;;;;;5005516;28;20259;-73
2023/01/05 11:07:30;;;;;;;18.13;4.43;;;;;;;;;;5007436;28;20179;-73
2023/01/05 11:09:55;;;;;;;17.38;4.28;;;;;;;;;;5011564;28;20179;-73
2023/01/05 11:12:22;;;;;;;19.45;4.25;;;;;;;;;;5012009;28;20229;-73
2023/01/05 11:14:49;;;;;;;22.40;4.95;;;;;;;;;;5008259;28;20572;-73
2023/01/05 11:17:18;;;;;;;23.15;5.55;;;;;;;;;;5004839;28;20183;-73
2023/01/05 11:19:45;;;;;;;19.73;4.15;;;;;;;;;;5009805;28;20191;-73
2023/01/05 11:22:30;;;;;;;23.80;5.35;;;;;;;;;;5009390;28;20218;-73
2023/01/05 11:25:12;;;;;;;39.85;7.55;;;;;;;;;;5008328;28;20179;-73
2023/01/05 11:27:37;;;;;;;19.20;4.72;;;;;;;;;;5007742;28;20215;-74
2023/01/05 11:30:15;;;;;;;19.05;5.07;;;;;;;;;;5007986;28;20206;-73
2023/01/05 11:32:40;;;;;;;24.33;5.03;;;;;;;;;;5005386;28;20187;-73
2023/01/05 11:35:26;;;;;;;23.58;5.53;;;;;;;;;;5003560;28;20604;-73
2023/01/05 11:37:51;;;;;;;21.20;5.07;;;;;;;;;;5003982;28;20685;-73
2023/01/05 11:40:18;;;;;;;21.33;5.03;;;;;;;;;;5005895;28;20229;-73
2023/01/05 11:42:43;;;;;;;19.50;3.97;;;;;;;;;;5008199;28;20301;-73
2023/01/05 11:45:27;;;;;;;21.55;4.75;;;;;;;;;;5006984;28;20266;-73
2023/01/05 11:47:57;;;;;;;22.73;5.50;;;;;;;;;;5008506;28;20275;-72
2023/01/05 11:50:26;;;;;;;21.00;5.47;;;;;;;;;;5009731;28;20237;-72
2023/01/05 11:52:55;;;;;;;28.50;5.57;;;;;;;;;;5012592;28;20278;-73
2023/01/05 11:55:21;;;;;;;17.35;4.53;;;;;;;;;;5005126;28;20205;-73
2023/01/05 11:57:46;;;;;;;27.63;5.00;;;;;;;;;;5003317;28;20172;-73
2023/01/05 12:00:34;;;;;;;13.93;3.80;;;;;;;;;;5008128;28;20181;-73
2023/01/05 12:03:11;;;;;;;22.83;4.85;;;;;;;;;;5004064;28;20200;-73
2023/01/05 12:05:37;;;;;;;17.75;4.40;;;;;;;;;;5010644;28;20210;-72
2023/01/05 12:08:09;;;;;;;20.15;4.55;;;;;;;;;;5008229;28;20272;-73
2023/01/05 12:10:43;;;;;;;15.77;3.80;;;;;;;;;;5006641;28;20176;-73
2023/01/05 12:13:37;;;;;;;18.83;4.57;;;;;;;;;;5010117;28;20218;-73
2023/01/05 12:16:02;;;;;;;18.35;4.85;;;;;;;;;;4994175;28;20265;-72
2023/01/05 12:18:46;;;;;;;19.97;5.17;;;;;;;;;;5009742;28;20210;-73
2023/01/05 12:21:11;;;;;;;25.42;4.43;;;;;;;;;;5006279;28;20455;-73
2023/01/05 12:23:45;;;;;;;25.03;6.23;;;;;;;;;;5011365;28;20179;-73
2023/01/05 12:26:11;;;;;;;19.85;4.30;;;;;;;;;;5010128;28;20408;-73
2023/01/05 12:28:37;;;;;;;24.27;4.85;;;;;;;;;;5012066;28;20553;-73
2023/01/05 12:31:10;;;;;;;16.38;4.18;;;;;;;;;;5007430;28;20179;-73
2023/01/05 12:34:04;;;;;;;20.15;4.22;;;;;;;;;;5002498;28;20177;-73
2023/01/05 12:36:35;;;;;;;21.17;4.63;;;;;;;;;;4956272;28;20200;-73
2023/01/05 12:39:27;;;;;;;22.83;5.97;;;;;;;;;;5009941;28;20166;-73
2023/01/05 12:41:58;;;;;;;17.33;4.28;;;;;;;;;;5009326;28;20210;-73
2023/01/05 12:44:23;;;;;;;16.15;4.45;;;;;;;;;;5004832;28;20217;-73
2023/01/05 12:47:01;;;;;;;15.52;4.20;;;;;;;;;;5010647;28;20179;-73
2023/01/05 12:49:32;;;;;;;20.73;5.30;;;;;;;;;;5006331;28;20178;-73
2023/01/05 12:52:03;;;;;;;19.58;5.85;;;;;;;;;;5005550;28;20616;-74
2023/01/05 12:54:33;;;;;;;25.20;5.68;;;;;;;;;;5008143;28;20215;-74
2023/01/05 12:57:04;;;;;;;23.20;4.40;;;;;;;;;;5005437;28;20168;-73
2023/01/05 12:59:51;;;;;;;23.45;4.90;;;;;;;;;;5005612;28;20185;-73
2023/01/05 13:02:26;;;;;;;17.67;3.97;;;;;;;;;;5008305;28;20187;-73
2023/01/05 13:04:54;;;;;;;22.25;4.40;;;;;;;;;;5003047;28;20559;-73
2023/01/05 13:07:25;;;;;;;25.98;6.30;;;;;;;;;;5007401;28;20214;-74
2023/01/05 13:09:59;;;;;;;18.20;5.15;;;;;;;;;;5003687;28;20620;-73
2023/01/05 13:12:24;;;;;;;24.05;5.53;;;;;;;;;;5018717;22;20262;-78
2023/01/05 13:15:00;;;;;;;20.75;4.85;;;;;;;;;;5007321;28;20673;-77
2023/01/05 13:17:36;;;;;;;26.35;6.15;;;;;;;;;;5019979;28;20241;-77
2023/01/05 13:20:03;;;;;;;24.98;4.35;;;;;;;;;;5011005;28;20198;-77
2023/01/05 13:22:31;;;;;;;26.67;6.07;;;;;;;;;;5008915;28;20245;-77
2023/01/05 13:25:02;;;;;;;24.75;6.00;;;;;;;;;;5008206;28;20220;-78
2023/01/05 13:27:29;;;;;;;24.13;4.38;;;;;;;;;;5010940;28;20553;-78
2023/01/05 13:29:58;;;;;;;23.35;5.90;;;;;;;;;;5007268;28;20171;-78
2023/01/05 13:32:42;;;;;;;27.23;5.00;;;;;;;;;;5010717;28;20203;-78
2023/01/05 13:35:20;;;;;;;22.88;6.32;;;;;;;;;;5003750;28;20199;-77
2023/01/05 13:38:04;;;;;;;19.65;4.70;;;;;;;;;;5007977;28;20181;-78
2023/01/05 13:40:48;;;;;;;28.17;6.03;;;;;;;;;;5009391;28;20645;-78
2023/01/05 13:43:45;;;;;;;15.02;4.75;;;;;;;;;;5008691;28;20202;-77
2023/01/05 13:46:11;;;;;;;17.70;4.45;;;;;;;;;;4974008;28;20247;-78
2023/01/05 13:48:46;;;;;;;20.67;5.18;;;;;;;;;;5005171;28;20261;-77
2023/01/05 13:51:20;;;;;;;19.10;3.97;;;;;;;;;;5005517;28;20774;-78
2023/01/05 13:53:47;;;;;;;22.52;6.10;;;;;;;;;;5007940;28;20174;-78
2023/01/05 13:56:20;;;;;;;28.13;5.55;;;;;;;;;;5003583;28;20723;-78
2023/01/05 13:58:47;;;;;;;19.25;5.07;;;;;;;;;;5005909;28;20198;-79
2023/01/05 14:01:14;;;;;;;27.65;5.63;;;;;;;;;;4995881;28;20602;-78
2023/01/05 14:03:45;;;;;;;24.42;5.15;;;;;;;;;;5005925;28;20190;-79
2023/01/05 14:06:18;;;;;;;13.93;4.20;;;;;;;;;;5015965;28;20221;-78
2023/01/05 14:09:13;;;;;;;16.75;4.88;;;;;;;;;;5003802;28;20188;-79
2023/01/05 14:11:58;;;;;;;18.13;4.72;;;;;;;;;;4988377;28;20206;-78
2023/01/05 14:14:25;;;;;;;26.73;6.10;;;;;;;;;;5000972;28;20239;-78
2023/01/05 14:16:51;;;;;;;17.55;4.40;;;;;;;;;;5012852;28;20682;-78
2023/01/05 14:19:22;;;;;;;26.00;4.97;;;;;;;;;;5010069;28;20183;-77
2023/01/05 14:21:47;;;;;;;23.73;7.32;;;;;;;;;;5010470;28;20584;-76
2023/01/05 14:24:25;;;;;;;26.40;5.28;;;;;;;;;;5015056;28;20171;-79
2023/01/05 14:27:09;;;;;;;20.33;5.13;;;;;;;;;;5000983;28;20175;-79
2023/01/05 14:29:43;;;;;;;18.13;4.50;;;;;;;;;;5012038;28;20676;-79
2023/01/05 14:32:09;;;;;;;21.02;6.00;;;;;;;;;;5012261;28;20197;-77
2023/01/05 14:34:34;;;;;;;25.58;5.07;;;;;;;;;;5013470;28;20628;-76
2023/01/05 14:37:01;;;;;;;21.52;5.05;;;;;;;;;;5014315;28;20171;-77
2023/01/05 14:39:34;;;;;;;28.45;6.15;;;;;;;;;;5009449;28;20820;-77
2023/01/05 14:42:03;;;;;;;24.75;5.65;;;;;;;;;;5006653;28;20234;-77
2023/01/05 14:44:42;;;;;;;21.38;4.82;;;;;;;;;;5006664;28;20175;-78
2023/01/05 14:47:08;;;;;;;24.13;5.32;;;;;;;;;;5006646;28;20570;-79
2023/01/05 14:49:35;;;;;;;28.23;7.25;;;;;;;;;;5008003;28;20176;-79
2023/01/05 14:52:02;;;;;;;29.05;6.85;;;;;;;;;;5008912;28;20548;-79
2023/01/05 14:54:53;;;;;;;25.65;6.90;;;;;;;;;;5009751;28;20194;-78
2023/01/05 14:57:25;;;;;;;25.88;5.97;;;;;;;;;;4982133;28;20218;-77
2023/01/05 14:59:54;;;;;;;30.50;8.70;;;;;;;;;;5011201;28;20181;-78
2023/01/05 15:02:23;;;;;;;27.48;6.00;;;;;;;;;;5011472;28;20202;-77
2023/01/05 15:04:51;;;;;;;24.73;6.07;;;;;;;;;;5007062;28;20712;-77
2023/01/05 15:07:26;;;;;;;23.63;4.72;;;;;;;;;;5008954;28;20182;-77
2023/01/05 15:10:00;;;;;;;27.95;5.82;;;;;;;;;;5015144;28;20604;-78
2023/01/05 15:12:43;;;;;;;19.98;5.22;;;;;;;;;;5014374;28;20690;-79
2023/01/05 15:15:27;;;;;;;26.23;5.18;;;;;;;;;;5011518;28;20198;-79